DAL202 KJFK-LGAV
Flight info
| Callsign | DAL202 |
|---|---|
| Flight time | N/A |
| Altitude | 35000 |
| Route | JFK5 HAPIE DCT YAHOO DCT KANNI N343B JOOPY/M082F360 DCT 49N050W 52N040W 53N030W 53N020W DCT LIMRI DCT XETBO/M082F370 DCT TAKAS/N0474F370 DCT ALUTA DCT KORER DCT LEMKA DCT BEBIX DCT LERGA/N0470F390 DCT TOZOT DCT OTROT DCT RETNO DCT KOLON DCT RAPUR DCT RATAP DCT BTA DCT DOKAR DCT SUNEV DCT LAT DCT LATAN DCT ARA UY144 NEMES |
| Aircraft | A333/H-SDE3GHIJ2J3J5M1RVWXY/LB2D1 |
Departure
| Time | 2026-05-09 17:25 |
|---|---|
| Airport | John F. Kennedy International Airport (KJFK) |
Arrival
| Time | N/A |
|---|---|
| Airport | Athens Eleftherios Venizelos International Airport (LGAV) |
| Time | Latitude | Longitude | Altitude | Speed | Heading |
|---|---|---|---|---|---|
| 2026-05-09 16:44 | 40.64042 | -73.78283 | 24 ft | 0 kts | 61° |
| 2026-05-09 17:08 | 40.64033 | -73.78304 | 47 ft | 1 kts | 61° |
| 2026-05-09 17:08 | 40.64018 | -73.78341 | 24 ft | 3 kts | 63° |
| 2026-05-09 17:08 | 40.64013 | -73.78366 | 26 ft | 3 kts | 109° |
| 2026-05-09 17:09 | 40.64022 | -73.78387 | 28 ft | 1 kts | 146° |
| 2026-05-09 17:09 | 40.64023 | -73.78387 | 28 ft | 0 kts | 146° |
| 2026-05-09 17:14 | 40.64019 | -73.78384 | 28 ft | 2 kts | 146° |
| 2026-05-09 17:14 | 40.64003 | -73.78370 | 29 ft | 4 kts | 147° |
| 2026-05-09 17:14 | 40.63969 | -73.78343 | 27 ft | 7 kts | 150° |
| 2026-05-09 17:14 | 40.63916 | -73.78310 | 25 ft | 10 kts | 157° |
| 2026-05-09 17:15 | 40.63850 | -73.78272 | 26 ft | 10 kts | 156° |
| 2026-05-09 17:15 | 40.63808 | -73.78259 | 28 ft | 4 kts | 175° |
| 2026-05-09 17:15 | 40.63792 | -73.78259 | 27 ft | 1 kts | 181° |
| 2026-05-09 17:15 | 40.63785 | -73.78259 | 27 ft | 2 kts | 182° |
| 2026-05-09 17:16 | 40.63758 | -73.78260 | 27 ft | 6 kts | 181° |
| 2026-05-09 17:17 | 40.63362 | -73.78134 | 31 ft | 11 kts | 118° |
| 2026-05-09 17:18 | 40.63333 | -73.78033 | 27 ft | 13 kts | 100° |
| 2026-05-09 17:18 | 40.63342 | -73.77904 | 28 ft | 17 kts | 70° |
| 2026-05-09 17:18 | 40.63425 | -73.77774 | 30 ft | 21 kts | 34° |
| 2026-05-09 17:18 | 40.63558 | -73.77668 | 26 ft | 25 kts | 31° |
| 2026-05-09 17:19 | 40.63720 | -73.77542 | 28 ft | 27 kts | 30° |
| 2026-05-09 17:19 | 40.63881 | -73.77418 | 28 ft | 27 kts | 30° |
| 2026-05-09 17:19 | 40.64040 | -73.77295 | 27 ft | 26 kts | 31° |
| 2026-05-09 17:19 | 40.64197 | -73.77171 | 30 ft | 26 kts | 31° |
| 2026-05-09 17:20 | 40.64355 | -73.77047 | 30 ft | 27 kts | 31° |
| 2026-05-09 17:20 | 40.64529 | -73.76970 | 28 ft | 26 kts | 27° |
| 2026-05-09 17:20 | 40.64688 | -73.76852 | 29 ft | 26 kts | 31° |
| 2026-05-09 17:20 | 40.64844 | -73.76728 | 28 ft | 26 kts | 31° |
| 2026-05-09 17:21 | 40.64996 | -73.76606 | 30 ft | 26 kts | 30° |
| 2026-05-09 17:21 | 40.65092 | -73.76509 | 29 ft | 7 kts | 66° |
| 2026-05-09 17:21 | 40.65094 | -73.76499 | 28 ft | 0 kts | 74° |
| 2026-05-09 17:22 | 40.65094 | -73.76495 | 28 ft | 2 kts | 77° |
| 2026-05-09 17:22 | 40.65094 | -73.76464 | 25 ft | 5 kts | 97° |
| 2026-05-09 17:22 | 40.65069 | -73.76399 | 26 ft | 11 kts | 127° |
| 2026-05-09 17:22 | 40.64999 | -73.76375 | 29 ft | 5 kts | 203° |
| 2026-05-09 17:23 | 40.64996 | -73.76378 | 29 ft | 0 kts | 207° |
| 2026-05-09 17:23 | 40.64900 | -73.76448 | 31 ft | 43 kts | 210° |
| 2026-05-09 17:23 | 40.64490 | -73.76775 | 28 ft | 94 kts | 211° |
| 2026-05-09 17:23 | 40.63787 | -73.77327 | 30 ft | 139 kts | 211° |
| 2026-05-09 17:25 | 40.58621 | -73.81359 | 1653 ft | 209 kts | 210° |
| 2026-05-09 17:25 | 40.57285 | -73.82315 | 1799 ft | 228 kts | 210° |
| 2026-05-09 17:25 | 40.55761 | -73.83097 | 2067 ft | 242 kts | 193° |
| 2026-05-09 17:25 | 40.54058 | -73.83089 | 2529 ft | 252 kts | 168° |
| 2026-05-09 17:26 | 40.52534 | -73.81922 | 3134 ft | 264 kts | 136° |
| 2026-05-09 17:26 | 40.51570 | -73.79853 | 3777 ft | 271 kts | 117° |
| 2026-05-09 17:26 | 40.50990 | -73.77467 | 4388 ft | 277 kts | 108° |
| 2026-05-09 17:26 | 40.50625 | -73.74953 | 4967 ft | 282 kts | 104° |
| 2026-05-09 17:27 | 40.50341 | -73.72393 | 5558 ft | 284 kts | 103° |
| 2026-05-09 17:27 | 40.50057 | -73.69804 | 6156 ft | 288 kts | 104° |
| 2026-05-09 17:27 | 40.49738 | -73.67199 | 6784 ft | 290 kts | 106° |
| 2026-05-09 17:27 | 40.49380 | -73.64582 | 7403 ft | 292 kts | 107° |
| 2026-05-09 17:28 | 40.48990 | -73.61959 | 8021 ft | 293 kts | 108° |
| 2026-05-09 17:28 | 40.48581 | -73.59332 | 8614 ft | 294 kts | 108° |
| 2026-05-09 17:28 | 40.48158 | -73.56696 | 9190 ft | 296 kts | 108° |
| 2026-05-09 17:28 | 40.47728 | -73.54038 | 9736 ft | 299 kts | 108° |
| 2026-05-09 17:29 | 40.47290 | -73.51348 | 10193 ft | 305 kts | 108° |
| 2026-05-09 17:29 | 40.46833 | -73.48564 | 10412 ft | 320 kts | 108° |
| 2026-05-09 17:29 | 40.46352 | -73.45633 | 10594 ft | 336 kts | 108° |
| 2026-05-09 17:29 | 40.45852 | -73.42570 | 10761 ft | 351 kts | 108° |
| 2026-05-09 17:30 | 40.45334 | -73.39370 | 10958 ft | 365 kts | 107° |
| 2026-05-09 17:30 | 40.44806 | -73.36090 | 11137 ft | 379 kts | 107° |
| 2026-05-09 17:30 | 40.44252 | -73.32647 | 11350 ft | 391 kts | 107° |
| 2026-05-09 17:30 | 40.43677 | -73.29077 | 11711 ft | 398 kts | 107° |
| 2026-05-09 17:31 | 40.43110 | -73.25548 | 12101 ft | 403 kts | 107° |
| 2026-05-09 17:31 | 40.42528 | -73.21936 | 12520 ft | 407 kts | 107° |
| 2026-05-09 17:32 | 40.40116 | -73.07133 | 14166 ft | 422 kts | 107° |
| 2026-05-09 17:32 | 40.39513 | -73.03350 | 14559 ft | 426 kts | 104° |
| 2026-05-09 17:32 | 40.39218 | -72.99449 | 14938 ft | 434 kts | 94° |
| 2026-05-09 17:33 | 40.39470 | -72.95475 | 15325 ft | 441 kts | 82° |
| 2026-05-09 17:33 | 40.40110 | -72.91527 | 15756 ft | 443 kts | 78° |
| 2026-05-09 17:33 | 40.40917 | -72.87614 | 16177 ft | 446 kts | 75° |
| 2026-05-09 17:33 | 40.41811 | -72.83707 | 16561 ft | 449 kts | 73° |
| 2026-05-09 17:34 | 40.42741 | -72.79785 | 16922 ft | 452 kts | 73° |
| 2026-05-09 17:35 | 40.48255 | -72.55705 | 19024 ft | 466 kts | 73° |
| 2026-05-09 17:35 | 40.49165 | -72.51608 | 19352 ft | 468 kts | 73° |
| 2026-05-09 17:36 | 40.50079 | -72.47488 | 19648 ft | 471 kts | 74° |
| 2026-05-09 17:36 | 40.50996 | -72.43349 | 19944 ft | 473 kts | 74° |
| 2026-05-09 17:36 | 40.51917 | -72.39186 | 20260 ft | 475 kts | 74° |
| 2026-05-09 17:36 | 40.52840 | -72.35007 | 20552 ft | 477 kts | 74° |
| 2026-05-09 17:37 | 40.53765 | -72.30811 | 20857 ft | 480 kts | 74° |
| 2026-05-09 17:37 | 40.54695 | -72.26588 | 21152 ft | 482 kts | 74° |
| 2026-05-09 17:37 | 40.55627 | -72.22346 | 21422 ft | 484 kts | 74° |
| 2026-05-09 17:37 | 40.56562 | -72.18083 | 21714 ft | 486 kts | 74° |
| 2026-05-09 17:38 | 40.57498 | -72.13808 | 22002 ft | 488 kts | 74° |
| 2026-05-09 17:38 | 40.58439 | -72.09502 | 22281 ft | 491 kts | 74° |
| 2026-05-09 17:38 | 40.59370 | -72.05230 | 22504 ft | 494 kts | 74° |
| 2026-05-09 17:39 | 40.61266 | -71.96508 | 23082 ft | 498 kts | 74° |
| 2026-05-09 17:39 | 40.62217 | -71.92117 | 23340 ft | 500 kts | 75° |
| 2026-05-09 17:39 | 40.63169 | -71.87715 | 23623 ft | 501 kts | 74° |
| 2026-05-09 17:39 | 40.64122 | -71.83298 | 23875 ft | 502 kts | 74° |
| 2026-05-09 17:40 | 40.65078 | -71.78864 | 24077 ft | 504 kts | 74° |
| 2026-05-09 17:40 | 40.66035 | -71.74409 | 24298 ft | 506 kts | 74° |
| 2026-05-09 17:40 | 40.66994 | -71.69941 | 24530 ft | 508 kts | 74° |
| 2026-05-09 17:40 | 40.67954 | -71.65456 | 24762 ft | 509 kts | 74° |
| 2026-05-09 17:41 | 40.68915 | -71.60956 | 24968 ft | 511 kts | 75° |
| 2026-05-09 17:41 | 40.69877 | -71.56441 | 25189 ft | 513 kts | 75° |
| 2026-05-09 17:41 | 40.70841 | -71.51908 | 25395 ft | 515 kts | 75° |
| 2026-05-09 17:41 | 40.71807 | -71.47360 | 25582 ft | 517 kts | 75° |
| 2026-05-09 17:42 | 40.72773 | -71.42795 | 25812 ft | 518 kts | 75° |
| 2026-05-09 17:42 | 40.73741 | -71.38215 | 26020 ft | 519 kts | 75° |
| 2026-05-09 17:42 | 40.74710 | -71.33619 | 26223 ft | 521 kts | 75° |
| 2026-05-09 17:42 | 40.75681 | -71.29003 | 26444 ft | 522 kts | 75° |
| 2026-05-09 17:43 | 40.76651 | -71.24387 | 26630 ft | 524 kts | 75° |
| 2026-05-09 17:43 | 40.77624 | -71.19741 | 26820 ft | 526 kts | 75° |
| 2026-05-09 17:43 | 40.78596 | -71.15090 | 27026 ft | 527 kts | 75° |
| 2026-05-09 17:43 | 40.79570 | -71.10421 | 27229 ft | 528 kts | 75° |
| 2026-05-09 17:44 | 40.80545 | -71.05735 | 27410 ft | 530 kts | 75° |
| 2026-05-09 17:44 | 40.81521 | -71.01034 | 27628 ft | 532 kts | 75° |
| 2026-05-09 17:44 | 40.82499 | -70.96316 | 27745 ft | 535 kts | 75° |
| 2026-05-09 17:44 | 40.83479 | -70.91574 | 27919 ft | 536 kts | 75° |
| 2026-05-09 17:45 | 40.84458 | -70.86822 | 28087 ft | 537 kts | 75° |
| 2026-05-09 17:45 | 40.85437 | -70.82063 | 28315 ft | 537 kts | 75° |
| 2026-05-09 17:45 | 40.86417 | -70.77291 | 28486 ft | 539 kts | 75° |
| 2026-05-09 17:45 | 40.87397 | -70.72504 | 28674 ft | 540 kts | 75° |
| 2026-05-09 17:46 | 40.88378 | -70.67703 | 28854 ft | 541 kts | 75° |
| 2026-05-09 17:46 | 40.89355 | -70.62910 | 29121 ft | 541 kts | 75° |
| 2026-05-09 17:46 | 40.90332 | -70.58108 | 29369 ft | 540 kts | 75° |
| 2026-05-09 17:46 | 40.91304 | -70.53318 | 29596 ft | 540 kts | 75° |
| 2026-05-09 17:47 | 40.92260 | -70.48595 | 29900 ft | 538 kts | 75° |
| 2026-05-09 17:47 | 40.93238 | -70.43756 | 30176 ft | 538 kts | 75° |
| 2026-05-09 17:47 | 40.94201 | -70.38976 | 30346 ft | 538 kts | 75° |
| 2026-05-09 17:47 | 40.95148 | -70.34263 | 30560 ft | 537 kts | 75° |
| 2026-05-09 17:48 | 40.96105 | -70.29493 | 30758 ft | 537 kts | 75° |
| 2026-05-09 17:48 | 40.97060 | -70.24720 | 30973 ft | 536 kts | 75° |
| 2026-05-09 17:48 | 40.98011 | -70.19954 | 31178 ft | 535 kts | 76° |
| 2026-05-09 17:48 | 40.98958 | -70.15199 | 31396 ft | 534 kts | 75° |
| 2026-05-09 17:49 | 40.99900 | -70.10457 | 31611 ft | 533 kts | 76° |
| 2026-05-09 17:49 | 41.00842 | -70.05705 | 31801 ft | 533 kts | 76° |
| 2026-05-09 17:49 | 41.01780 | -70.00964 | 31992 ft | 532 kts | 76° |
| 2026-05-09 17:49 | 41.02715 | -69.96223 | 32168 ft | 532 kts | 76° |
| 2026-05-09 17:50 | 41.03648 | -69.91480 | 32351 ft | 532 kts | 76° |
| 2026-05-09 17:50 | 41.05505 | -69.82011 | 32715 ft | 530 kts | 76° |
| 2026-05-09 17:50 | 41.06207 | -69.78854 | 32839 ft | 530 kts | 70° |
| 2026-05-09 17:51 | 41.08254 | -69.73001 | 33041 ft | 528 kts | 56° |
| 2026-05-09 17:51 | 41.10314 | -69.68992 | 33194 ft | 526 kts | 52° |
| 2026-05-09 17:51 | 41.12498 | -69.65107 | 33363 ft | 525 kts | 50° |
| 2026-05-09 17:51 | 41.14741 | -69.61296 | 33537 ft | 524 kts | 49° |
| 2026-05-09 17:52 | 41.17012 | -69.57512 | 33689 ft | 523 kts | 49° |
| 2026-05-09 17:52 | 41.19284 | -69.53740 | 33857 ft | 524 kts | 48° |
| 2026-05-09 17:52 | 41.23078 | -69.47406 | 34117 ft | 522 kts | 49° |
| 2026-05-09 17:53 | 41.25326 | -69.43623 | 34243 ft | 521 kts | 49° |
| 2026-05-09 17:53 | 41.27570 | -69.39831 | 34319 ft | 522 kts | 49° |
| 2026-05-09 17:53 | 41.31996 | -69.32314 | 34505 ft | 523 kts | 49° |
| 2026-05-09 17:54 | 41.36539 | -69.24569 | 34627 ft | 526 kts | 49° |
| 2026-05-09 17:54 | 41.41036 | -69.16881 | 34839 ft | 525 kts | 49° |
| 2026-05-09 17:55 | 41.43245 | -69.13097 | 34978 ft | 524 kts | 49° |
| 2026-05-09 17:55 | 41.45485 | -69.09258 | 35027 ft | 526 kts | 49° |
| 2026-05-09 17:55 | 41.49987 | -69.01528 | 35087 ft | 530 kts | 49° |
| 2026-05-09 17:56 | 41.54512 | -68.93740 | 35083 ft | 531 kts | 49° |
| 2026-05-09 17:57 | 41.61284 | -68.82038 | 35085 ft | 530 kts | 49° |
| 2026-05-09 17:57 | 41.65784 | -68.74240 | 35092 ft | 530 kts | 49° |
| 2026-05-09 17:58 | 41.70287 | -68.66418 | 35090 ft | 531 kts | 49° |
| 2026-05-09 17:58 | 41.74787 | -68.58579 | 35098 ft | 531 kts | 49° |
| 2026-05-09 17:59 | 41.79281 | -68.50730 | 35090 ft | 531 kts | 49° |
| 2026-05-09 17:59 | 41.83768 | -68.42875 | 35098 ft | 531 kts | 49° |
| 2026-05-09 18:00 | 41.88256 | -68.34997 | 35096 ft | 531 kts | 49° |
| 2026-05-09 18:00 | 41.92742 | -68.27104 | 35136 ft | 532 kts | 49° |
| 2026-05-09 18:01 | 41.97224 | -68.19193 | 35103 ft | 532 kts | 49° |
| 2026-05-09 18:01 | 42.01701 | -68.11273 | 35105 ft | 532 kts | 49° |
| 2026-05-09 18:02 | 42.06170 | -68.03344 | 35102 ft | 532 kts | 49° |
| 2026-05-09 18:02 | 42.10636 | -67.95402 | 35109 ft | 532 kts | 49° |
| 2026-05-09 18:03 | 42.15069 | -67.87496 | 35110 ft | 532 kts | 49° |
| 2026-05-09 18:03 | 42.19524 | -67.79532 | 35099 ft | 532 kts | 49° |
| 2026-05-09 18:04 | 42.23973 | -67.71556 | 35112 ft | 532 kts | 49° |
| 2026-05-09 18:04 | 42.28413 | -67.63576 | 35112 ft | 532 kts | 49° |
| 2026-05-09 18:05 | 42.32847 | -67.55584 | 35110 ft | 532 kts | 49° |
| 2026-05-09 18:05 | 42.37278 | -67.47578 | 35119 ft | 531 kts | 49° |
| 2026-05-09 18:06 | 42.41696 | -67.39573 | 35117 ft | 531 kts | 49° |
| 2026-05-09 18:06 | 42.46109 | -67.31555 | 35117 ft | 531 kts | 49° |
| 2026-05-09 18:07 | 42.50513 | -67.23533 | 35121 ft | 531 kts | 49° |
| 2026-05-09 18:07 | 42.54914 | -67.15495 | 35120 ft | 530 kts | 49° |
| 2026-05-09 18:08 | 42.59303 | -67.07459 | 35125 ft | 530 kts | 49° |
| 2026-05-09 18:08 | 42.63678 | -66.99401 | 35154 ft | 531 kts | 50° |
| 2026-05-09 18:09 | 42.67896 | -66.91160 | 35130 ft | 531 kts | 52° |
| 2026-05-09 18:09 | 42.72035 | -66.82827 | 35130 ft | 532 kts | 52° |
| 2026-05-09 18:10 | 42.76171 | -66.74496 | 35124 ft | 531 kts | 52° |
| 2026-05-09 18:10 | 42.80310 | -66.66184 | 35134 ft | 529 kts | 52° |
| 2026-05-09 18:11 | 42.84438 | -66.57890 | 35134 ft | 529 kts | 52° |
| 2026-05-09 18:11 | 42.88560 | -66.49590 | 35139 ft | 529 kts | 52° |
| 2026-05-09 18:12 | 42.92674 | -66.41280 | 35141 ft | 528 kts | 52° |
| 2026-05-09 18:12 | 42.96775 | -66.32970 | 35143 ft | 528 kts | 52° |
| 2026-05-09 18:13 | 43.00871 | -66.24649 | 35141 ft | 528 kts | 52° |
| 2026-05-09 18:13 | 43.04962 | -66.16313 | 35134 ft | 528 kts | 52° |
| 2026-05-09 18:14 | 43.09015 | -66.08032 | 35140 ft | 527 kts | 52° |
| 2026-05-09 18:14 | 43.13082 | -65.99698 | 35144 ft | 526 kts | 52° |
| 2026-05-09 18:15 | 43.17139 | -65.91363 | 35154 ft | 526 kts | 51° |
| 2026-05-09 18:15 | 43.21052 | -65.83300 | 35151 ft | 525 kts | 51° |
| 2026-05-09 18:16 | 43.25090 | -65.74958 | 35152 ft | 525 kts | 52° |
| 2026-05-09 18:16 | 43.29124 | -65.66600 | 35142 ft | 525 kts | 52° |
| 2026-05-09 18:17 | 43.33150 | -65.58232 | 35141 ft | 525 kts | 51° |
| 2026-05-09 18:17 | 43.37161 | -65.49872 | 35143 ft | 524 kts | 51° |
| 2026-05-09 18:18 | 43.41168 | -65.41500 | 35145 ft | 524 kts | 51° |
| 2026-05-09 18:18 | 43.45163 | -65.33128 | 35153 ft | 524 kts | 51° |
| 2026-05-09 18:19 | 43.49153 | -65.24741 | 35140 ft | 523 kts | 51° |
| 2026-05-09 18:19 | 43.55129 | -65.12137 | 35140 ft | 524 kts | 51° |
| 2026-05-09 18:20 | 43.59104 | -65.03723 | 35143 ft | 524 kts | 51° |
| 2026-05-09 18:20 | 43.63075 | -64.95292 | 35140 ft | 524 kts | 51° |
| 2026-05-09 18:21 | 43.67042 | -64.86846 | 35138 ft | 524 kts | 51° |
| 2026-05-09 18:21 | 43.71002 | -64.78391 | 35152 ft | 524 kts | 51° |
| 2026-05-09 18:22 | 43.74954 | -64.69927 | 35138 ft | 524 kts | 51° |
| 2026-05-09 18:22 | 43.78902 | -64.61448 | 35135 ft | 524 kts | 52° |
| 2026-05-09 18:23 | 43.82842 | -64.52963 | 35132 ft | 524 kts | 52° |
| 2026-05-09 18:23 | 43.86775 | -64.44467 | 35130 ft | 524 kts | 52° |
| 2026-05-09 18:24 | 43.90674 | -64.36020 | 35127 ft | 524 kts | 52° |
| 2026-05-09 18:25 | 43.96553 | -64.23236 | 35129 ft | 524 kts | 52° |
| 2026-05-09 18:25 | 44.00493 | -64.14638 | 35127 ft | 524 kts | 52° |
| 2026-05-09 18:26 | 44.04395 | -64.06095 | 35124 ft | 524 kts | 52° |
| 2026-05-09 18:26 | 44.08264 | -63.97601 | 35118 ft | 524 kts | 52° |
| 2026-05-09 18:27 | 44.12156 | -63.89033 | 35132 ft | 524 kts | 52° |
| 2026-05-09 18:27 | 44.16039 | -63.80459 | 35116 ft | 524 kts | 52° |
| 2026-05-09 18:28 | 44.19921 | -63.71861 | 35121 ft | 524 kts | 52° |
| 2026-05-09 18:28 | 44.23796 | -63.63250 | 35125 ft | 524 kts | 52° |
| 2026-05-09 18:29 | 44.27664 | -63.54632 | 35119 ft | 525 kts | 52° |
| 2026-05-09 18:29 | 44.31533 | -63.45986 | 35117 ft | 525 kts | 53° |
| 2026-05-09 18:30 | 44.35393 | -63.37332 | 35116 ft | 525 kts | 53° |
| 2026-05-09 18:30 | 44.39249 | -63.28664 | 35134 ft | 525 kts | 53° |
| 2026-05-09 18:31 | 44.43103 | -63.19972 | 35123 ft | 526 kts | 53° |
| 2026-05-09 18:31 | 44.46958 | -63.11252 | 35133 ft | 527 kts | 53° |
| 2026-05-09 18:32 | 44.50807 | -63.02519 | 35160 ft | 527 kts | 53° |
| 2026-05-09 18:32 | 44.54653 | -62.93767 | 35127 ft | 527 kts | 54° |
| 2026-05-09 18:33 | 44.58495 | -62.84995 | 35133 ft | 528 kts | 54° |
| 2026-05-09 18:33 | 44.62329 | -62.76215 | 35131 ft | 528 kts | 54° |
| 2026-05-09 18:34 | 44.66154 | -62.67428 | 35136 ft | 528 kts | 54° |
| 2026-05-09 18:34 | 44.69977 | -62.58620 | 35127 ft | 528 kts | 54° |
| 2026-05-09 18:35 | 44.73794 | -62.49798 | 35125 ft | 528 kts | 54° |
| 2026-05-09 18:35 | 44.77602 | -62.40971 | 35135 ft | 528 kts | 55° |
| 2026-05-09 18:36 | 44.81407 | -62.32122 | 35130 ft | 528 kts | 55° |
| 2026-05-09 18:36 | 44.85177 | -62.23328 | 35123 ft | 528 kts | 55° |
| 2026-05-09 18:37 | 44.88964 | -62.14465 | 35120 ft | 528 kts | 56° |
| 2026-05-09 18:37 | 44.92747 | -62.05585 | 35121 ft | 528 kts | 56° |
| 2026-05-09 18:38 | 44.95905 | -61.98150 | 35119 ft | 527 kts | 56° |
| 2026-05-09 18:38 | 44.99666 | -61.89270 | 35119 ft | 527 kts | 56° |
| 2026-05-09 18:40 | 45.14628 | -61.53666 | 35113 ft | 526 kts | 57° |
| 2026-05-09 18:41 | 45.18347 | -61.44745 | 35119 ft | 526 kts | 57° |
| 2026-05-09 18:41 | 45.22058 | -61.35815 | 35118 ft | 526 kts | 57° |
| 2026-05-09 18:42 | 45.25762 | -61.26875 | 35122 ft | 526 kts | 57° |
| 2026-05-09 18:42 | 45.29462 | -61.17915 | 35121 ft | 526 kts | 57° |
| 2026-05-09 18:43 | 45.33148 | -61.08961 | 35122 ft | 524 kts | 57° |
| 2026-05-09 18:43 | 45.36817 | -61.00018 | 35104 ft | 523 kts | 57° |
| 2026-05-09 18:44 | 45.40452 | -60.91129 | 35106 ft | 523 kts | 57° |
| 2026-05-09 18:44 | 45.44105 | -60.82172 | 35110 ft | 523 kts | 58° |
| 2026-05-09 18:45 | 45.47774 | -60.73143 | 35104 ft | 523 kts | 58° |
| 2026-05-09 18:45 | 45.51387 | -60.64222 | 35102 ft | 523 kts | 58° |
| 2026-05-09 18:46 | 45.55017 | -60.55233 | 35107 ft | 523 kts | 58° |
| 2026-05-09 18:46 | 45.58638 | -60.46237 | 35107 ft | 522 kts | 58° |
| 2026-05-09 18:47 | 45.62243 | -60.37250 | 35106 ft | 521 kts | 58° |
| 2026-05-09 18:47 | 45.65834 | -60.28270 | 35106 ft | 520 kts | 59° |
| 2026-05-09 18:48 | 45.69418 | -60.19277 | 35109 ft | 521 kts | 59° |
| 2026-05-09 18:48 | 45.72995 | -60.10274 | 35103 ft | 519 kts | 59° |
| 2026-05-09 18:49 | 45.76553 | -60.01289 | 35118 ft | 519 kts | 59° |
| 2026-05-09 18:49 | 45.80106 | -59.92289 | 35109 ft | 519 kts | 59° |
| 2026-05-09 18:50 | 45.83656 | -59.83265 | 35111 ft | 520 kts | 59° |
| 2026-05-09 18:50 | 45.87194 | -59.74242 | 35111 ft | 519 kts | 59° |
| 2026-05-09 18:51 | 45.90727 | -59.65202 | 35111 ft | 519 kts | 60° |
| 2026-05-09 18:51 | 45.94251 | -59.56156 | 35107 ft | 519 kts | 60° |
| 2026-05-09 18:52 | 45.97772 | -59.47089 | 35121 ft | 519 kts | 60° |
| 2026-05-09 18:52 | 46.01286 | -59.38010 | 35119 ft | 520 kts | 60° |
| 2026-05-09 18:53 | 46.04793 | -59.28915 | 35118 ft | 520 kts | 60° |
| 2026-05-09 18:53 | 46.08293 | -59.19813 | 35119 ft | 520 kts | 60° |
| 2026-05-09 18:54 | 46.11781 | -59.10708 | 35125 ft | 519 kts | 60° |
| 2026-05-09 18:54 | 46.15241 | -59.01648 | 35126 ft | 519 kts | 60° |
| 2026-05-09 18:55 | 46.18737 | -58.92461 | 35122 ft | 519 kts | 61° |
| 2026-05-09 18:55 | 46.22178 | -58.83390 | 35136 ft | 519 kts | 61° |
| 2026-05-09 18:56 | 46.25639 | -58.74237 | 35130 ft | 519 kts | 61° |
| 2026-05-09 18:56 | 46.29087 | -58.65083 | 35129 ft | 519 kts | 61° |
| 2026-05-09 18:57 | 46.32529 | -58.55917 | 35126 ft | 519 kts | 61° |
| 2026-05-09 18:57 | 46.35965 | -58.46736 | 35129 ft | 519 kts | 61° |
| 2026-05-09 18:58 | 46.39393 | -58.37546 | 35131 ft | 518 kts | 62° |
| 2026-05-09 18:58 | 46.42811 | -58.28350 | 35118 ft | 518 kts | 62° |
| 2026-05-09 18:59 | 46.46224 | -58.19137 | 35140 ft | 519 kts | 62° |
| 2026-05-09 18:59 | 46.49632 | -58.09904 | 35127 ft | 519 kts | 62° |
| 2026-05-09 19:00 | 46.53032 | -58.00663 | 35143 ft | 519 kts | 62° |
| 2026-05-09 19:00 | 46.58115 | -57.86786 | 35125 ft | 519 kts | 62° |
| 2026-05-09 19:01 | 46.61499 | -57.77509 | 35133 ft | 519 kts | 62° |
| 2026-05-09 19:01 | 46.64871 | -57.68232 | 35135 ft | 519 kts | 62° |
| 2026-05-09 19:02 | 46.68236 | -57.58941 | 35132 ft | 519 kts | 62° |
| 2026-05-09 19:02 | 46.71593 | -57.49641 | 35129 ft | 519 kts | 62° |
| 2026-05-09 19:03 | 46.74940 | -57.40335 | 35125 ft | 519 kts | 63° |
| 2026-05-09 19:03 | 46.78293 | -57.30981 | 35132 ft | 521 kts | 63° |
| 2026-05-09 19:04 | 46.81329 | -57.22481 | 35129 ft | 521 kts | 63° |
| 2026-05-09 19:04 | 46.84145 | -57.14575 | 35127 ft | 520 kts | 63° |
| 2026-05-09 19:05 | 46.87480 | -57.05181 | 35114 ft | 521 kts | 63° |
| 2026-05-09 19:05 | 46.90808 | -56.95772 | 35122 ft | 521 kts | 63° |
| 2026-05-09 19:06 | 46.94130 | -56.86346 | 35122 ft | 521 kts | 63° |
| 2026-05-09 19:06 | 46.97444 | -56.76910 | 35119 ft | 521 kts | 63° |
| 2026-05-09 19:07 | 47.00752 | -56.67457 | 35110 ft | 521 kts | 64° |
| 2026-05-09 19:07 | 47.04048 | -56.58004 | 35121 ft | 521 kts | 64° |
| 2026-05-09 19:08 | 47.07338 | -56.48534 | 35077 ft | 521 kts | 64° |
| 2026-05-09 19:08 | 47.10599 | -56.39114 | 35093 ft | 522 kts | 64° |
| 2026-05-09 19:09 | 47.13877 | -56.29612 | 35086 ft | 522 kts | 64° |
| 2026-05-09 19:09 | 47.17146 | -56.20100 | 35061 ft | 522 kts | 65° |
| 2026-05-09 19:10 | 47.20408 | -56.10573 | 35064 ft | 522 kts | 65° |
| 2026-05-09 19:10 | 47.23660 | -56.01041 | 35040 ft | 522 kts | 65° |
| 2026-05-09 19:11 | 47.26909 | -55.91484 | 35033 ft | 522 kts | 65° |
| 2026-05-09 19:11 | 47.30149 | -55.81919 | 35033 ft | 522 kts | 65° |
| 2026-05-09 19:12 | 47.33381 | -55.72339 | 35023 ft | 522 kts | 65° |
| 2026-05-09 19:12 | 47.36605 | -55.62752 | 35017 ft | 522 kts | 66° |
| 2026-05-09 19:13 | 47.39822 | -55.53150 | 35034 ft | 523 kts | 66° |
| 2026-05-09 19:13 | 47.43037 | -55.43515 | 35051 ft | 523 kts | 66° |
| 2026-05-09 19:14 | 47.46243 | -55.33867 | 35048 ft | 523 kts | 66° |
| 2026-05-09 19:14 | 47.49443 | -55.24207 | 35057 ft | 523 kts | 66° |
| 2026-05-09 19:15 | 47.52634 | -55.14538 | 35076 ft | 523 kts | 67° |
| 2026-05-09 19:15 | 47.55819 | -55.04848 | 35076 ft | 523 kts | 67° |
| 2026-05-09 19:16 | 47.58995 | -54.95150 | 35078 ft | 523 kts | 67° |
| 2026-05-09 19:16 | 47.62141 | -54.85510 | 35071 ft | 523 kts | 67° |
| 2026-05-09 19:17 | 47.65318 | -54.75736 | 35074 ft | 523 kts | 67° |
| 2026-05-09 19:17 | 47.68446 | -54.66073 | 35074 ft | 523 kts | 68° |
| 2026-05-09 19:18 | 47.71586 | -54.56339 | 35068 ft | 523 kts | 68° |
| 2026-05-09 19:18 | 47.74722 | -54.46580 | 35068 ft | 523 kts | 68° |
| 2026-05-09 19:19 | 47.77850 | -54.36807 | 35067 ft | 524 kts | 68° |
| 2026-05-09 19:19 | 47.80967 | -54.27031 | 35066 ft | 523 kts | 68° |
| 2026-05-09 19:20 | 47.84079 | -54.17233 | 35067 ft | 523 kts | 68° |
| 2026-05-09 19:20 | 47.87182 | -54.07428 | 35069 ft | 523 kts | 69° |
| 2026-05-09 19:21 | 47.90276 | -53.97608 | 35074 ft | 524 kts | 69° |
| 2026-05-09 19:21 | 47.93362 | -53.87780 | 35074 ft | 524 kts | 69° |
| 2026-05-09 19:22 | 47.96440 | -53.77936 | 35076 ft | 523 kts | 69° |
| 2026-05-09 19:22 | 47.99509 | -53.68085 | 35073 ft | 523 kts | 70° |
| 2026-05-09 19:23 | 48.02565 | -53.58236 | 35082 ft | 523 kts | 70° |
| 2026-05-09 19:23 | 48.05619 | -53.48349 | 35087 ft | 524 kts | 70° |
| 2026-05-09 19:24 | 48.08667 | -53.38449 | 35089 ft | 524 kts | 70° |
| 2026-05-09 19:24 | 48.11195 | -53.30208 | 35092 ft | 524 kts | 71° |
| 2026-05-09 19:25 | 48.14230 | -53.20274 | 35094 ft | 525 kts | 71° |
| 2026-05-09 19:25 | 48.17262 | -53.10311 | 35100 ft | 526 kts | 71° |
| 2026-05-09 19:26 | 48.20284 | -53.00343 | 35102 ft | 525 kts | 71° |
| 2026-05-09 19:26 | 48.23297 | -52.90363 | 35101 ft | 525 kts | 71° |
| 2026-05-09 19:27 | 48.26301 | -52.80372 | 35111 ft | 525 kts | 71° |
| 2026-05-09 19:27 | 48.29292 | -52.70385 | 35113 ft | 525 kts | 71° |
| 2026-05-09 19:28 | 48.32276 | -52.60381 | 35113 ft | 525 kts | 72° |
| 2026-05-09 19:28 | 48.35251 | -52.50367 | 35109 ft | 524 kts | 72° |
| 2026-05-09 19:29 | 48.38211 | -52.40364 | 35113 ft | 523 kts | 72° |
| 2026-05-09 19:29 | 48.41159 | -52.30356 | 35113 ft | 523 kts | 72° |
| 2026-05-09 19:30 | 48.44095 | -52.20348 | 35115 ft | 523 kts | 72° |
| 2026-05-09 19:30 | 48.47027 | -52.10313 | 35119 ft | 523 kts | 73° |
| 2026-05-09 19:31 | 48.49947 | -52.00264 | 35114 ft | 523 kts | 74° |
| 2026-05-09 19:31 | 48.52676 | -51.90131 | 35115 ft | 520 kts | 76° |
| 2026-05-09 19:32 | 48.55280 | -51.79956 | 35115 ft | 520 kts | 76° |
| 2026-05-09 19:32 | 48.57882 | -51.69769 | 35059 ft | 520 kts | 79° |
| 2026-05-09 19:33 | 48.60495 | -51.59562 | 35116 ft | 523 kts | 79° |
| 2026-05-09 19:33 | 48.63119 | -51.49306 | 35112 ft | 523 kts | 79° |
| 2026-05-09 19:34 | 48.65737 | -51.39051 | 35105 ft | 523 kts | 79° |
| 2026-05-09 19:34 | 48.68343 | -51.28788 | 35098 ft | 522 kts | 80° |
| 2026-05-09 19:35 | 48.70919 | -51.18588 | 35105 ft | 523 kts | 80° |
| 2026-05-09 19:35 | 48.73506 | -51.08302 | 35105 ft | 522 kts | 80° |
| 2026-05-09 19:36 | 48.76082 | -50.98010 | 35102 ft | 522 kts | 80° |
| 2026-05-09 19:36 | 48.78647 | -50.87715 | 35092 ft | 522 kts | 81° |
| 2026-05-09 19:37 | 48.81203 | -50.77410 | 35041 ft | 522 kts | 81° |
| 2026-05-09 19:37 | 48.83745 | -50.67118 | 35098 ft | 521 kts | 81° |
| 2026-05-09 19:38 | 48.86277 | -50.56813 | 35104 ft | 520 kts | 81° |
| 2026-05-09 19:38 | 48.88797 | -50.46512 | 35094 ft | 520 kts | 81° |
| 2026-05-09 19:39 | 48.91308 | -50.36195 | 35095 ft | 520 kts | 81° |
| 2026-05-09 19:39 | 48.93809 | -50.25873 | 35097 ft | 520 kts | 81° |
| 2026-05-09 19:40 | 48.96302 | -50.15539 | 35099 ft | 520 kts | 81° |
| 2026-05-09 19:40 | 48.98783 | -50.05206 | 35057 ft | 520 kts | 82° |
| 2026-05-09 19:41 | 49.01849 | -49.95092 | 35092 ft | 531 kts | 73° |
| 2026-05-09 19:41 | 49.05375 | -49.85166 | 35088 ft | 533 kts | 72° |
| 2026-05-09 19:42 | 49.08973 | -49.75269 | 35091 ft | 534 kts | 71° |
| 2026-05-09 19:42 | 49.12564 | -49.65368 | 35068 ft | 533 kts | 72° |
| 2026-05-09 19:43 | 49.16125 | -49.55475 | 35084 ft | 531 kts | 72° |
| 2026-05-09 19:43 | 49.19667 | -49.45571 | 35083 ft | 531 kts | 72° |
| 2026-05-09 19:44 | 49.23195 | -49.35660 | 35081 ft | 531 kts | 72° |
| 2026-05-09 19:44 | 49.26716 | -49.25737 | 35070 ft | 530 kts | 73° |
| 2026-05-09 19:45 | 49.30222 | -49.15823 | 35075 ft | 529 kts | 73° |
| 2026-05-09 19:45 | 49.33714 | -49.05906 | 35075 ft | 529 kts | 73° |
| 2026-05-09 19:46 | 49.37196 | -48.95978 | 35070 ft | 528 kts | 73° |
| 2026-05-09 19:46 | 49.40666 | -48.86047 | 35064 ft | 528 kts | 73° |
| 2026-05-09 19:47 | 49.44125 | -48.76113 | 35067 ft | 527 kts | 73° |
| 2026-05-09 19:47 | 49.47572 | -48.66171 | 35062 ft | 527 kts | 73° |
| 2026-05-09 19:48 | 49.51009 | -48.56221 | 35065 ft | 527 kts | 73° |
| 2026-05-09 19:48 | 49.54438 | -48.46250 | 35060 ft | 527 kts | 73° |
| 2026-05-09 19:49 | 49.57861 | -48.36263 | 35057 ft | 527 kts | 73° |
| 2026-05-09 19:49 | 49.61276 | -48.26262 | 35056 ft | 527 kts | 73° |
| 2026-05-09 19:50 | 49.64683 | -48.16245 | 34966 ft | 527 kts | 72° |
| 2026-05-09 19:50 | 49.68076 | -48.06226 | 35049 ft | 528 kts | 72° |
| 2026-05-09 19:51 | 49.71469 | -47.96167 | 35048 ft | 528 kts | 72° |
| 2026-05-09 19:51 | 49.74851 | -47.86104 | 35048 ft | 528 kts | 73° |
| 2026-05-09 19:52 | 49.78225 | -47.76025 | 35035 ft | 527 kts | 72° |
| 2026-05-09 19:52 | 49.81578 | -47.65975 | 35048 ft | 525 kts | 72° |
| 2026-05-09 19:53 | 49.84914 | -47.55926 | 35042 ft | 525 kts | 73° |
| 2026-05-09 19:53 | 49.88240 | -47.45864 | 35040 ft | 525 kts | 73° |
| 2026-05-09 19:54 | 49.91560 | -47.35784 | 35038 ft | 524 kts | 72° |
| 2026-05-09 19:54 | 49.94860 | -47.25729 | 35043 ft | 523 kts | 72° |
| 2026-05-09 19:55 | 49.98151 | -47.15660 | 35045 ft | 522 kts | 72° |
| 2026-05-09 19:56 | 50.03065 | -47.00545 | 35013 ft | 522 kts | 72° |
| 2026-05-09 19:56 | 50.06334 | -46.90436 | 35040 ft | 523 kts | 72° |
| 2026-05-09 19:57 | 50.09596 | -46.80310 | 35042 ft | 524 kts | 72° |
| 2026-05-09 19:57 | 50.12854 | -46.70160 | 35038 ft | 523 kts | 72° |
| 2026-05-09 19:58 | 50.16100 | -46.60004 | 35039 ft | 523 kts | 72° |
| 2026-05-09 19:58 | 50.19338 | -46.49829 | 35044 ft | 523 kts | 72° |
| 2026-05-09 19:59 | 50.22565 | -46.39648 | 35041 ft | 523 kts | 72° |
| 2026-05-09 19:59 | 50.25785 | -46.29451 | 35041 ft | 523 kts | 72° |
| 2026-05-09 20:00 | 50.28996 | -46.19237 | 35033 ft | 523 kts | 72° |
| 2026-05-09 20:00 | 50.32198 | -46.09007 | 35044 ft | 524 kts | 72° |
| 2026-05-09 20:01 | 50.35394 | -45.98756 | 35044 ft | 524 kts | 72° |
| 2026-05-09 20:01 | 50.38582 | -45.88491 | 35048 ft | 523 kts | 72° |
| 2026-05-09 20:02 | 50.41756 | -45.78230 | 35040 ft | 524 kts | 72° |
| 2026-05-09 20:02 | 50.44928 | -45.67926 | 35049 ft | 525 kts | 72° |
| 2026-05-09 20:03 | 50.49668 | -45.52446 | 35051 ft | 525 kts | 72° |
| 2026-05-09 20:03 | 50.52819 | -45.42102 | 35027 ft | 525 kts | 71° |
| 2026-05-09 20:04 | 50.55960 | -45.31752 | 35056 ft | 525 kts | 72° |
| 2026-05-09 20:04 | 50.59093 | -45.21377 | 35063 ft | 525 kts | 72° |
| 2026-05-09 20:05 | 50.62218 | -45.10988 | 35066 ft | 525 kts | 72° |
| 2026-05-09 20:05 | 50.65311 | -45.00663 | 35049 ft | 525 kts | 71° |
| 2026-05-09 20:06 | 50.68411 | -44.90269 | 35047 ft | 523 kts | 71° |
| 2026-05-09 20:06 | 50.71488 | -44.79911 | 35075 ft | 520 kts | 71° |
| 2026-05-09 20:07 | 50.74543 | -44.69578 | 35083 ft | 519 kts | 71° |
| 2026-05-09 20:07 | 50.77589 | -44.59228 | 35074 ft | 519 kts | 71° |
| 2026-05-09 20:08 | 50.81640 | -44.45398 | 35099 ft | 517 kts | 71° |
| 2026-05-09 20:09 | 50.84653 | -44.35059 | 35103 ft | 517 kts | 71° |
| 2026-05-09 20:09 | 50.87656 | -44.24710 | 35110 ft | 517 kts | 71° |
| 2026-05-09 20:10 | 50.90627 | -44.14424 | 35106 ft | 517 kts | 71° |
| 2026-05-09 20:10 | 50.93608 | -44.04065 | 35119 ft | 516 kts | 71° |
| 2026-05-09 20:11 | 50.96593 | -43.93645 | 35122 ft | 516 kts | 71° |
| 2026-05-09 20:11 | 50.99547 | -43.83284 | 35132 ft | 515 kts | 71° |
| 2026-05-09 20:12 | 51.02492 | -43.72909 | 35136 ft | 515 kts | 71° |
| 2026-05-09 20:12 | 51.05427 | -43.62527 | 35138 ft | 514 kts | 71° |
| 2026-05-09 20:13 | 51.08348 | -43.52147 | 35146 ft | 515 kts | 71° |
| 2026-05-09 20:13 | 51.11242 | -43.41821 | 35150 ft | 514 kts | 71° |
| 2026-05-09 20:14 | 51.14144 | -43.31418 | 35150 ft | 514 kts | 71° |
| 2026-05-09 20:14 | 51.17034 | -43.21013 | 35160 ft | 513 kts | 71° |
| 2026-05-09 20:15 | 51.19903 | -43.10642 | 35167 ft | 510 kts | 71° |
| 2026-05-09 20:15 | 51.22751 | -43.00300 | 35174 ft | 509 kts | 71° |
| 2026-05-09 20:16 | 51.25584 | -42.89957 | 35170 ft | 508 kts | 71° |
| 2026-05-09 20:16 | 51.28400 | -42.79638 | 35181 ft | 506 kts | 71° |
| 2026-05-09 20:17 | 51.31197 | -42.69340 | 35190 ft | 505 kts | 71° |
| 2026-05-09 20:17 | 51.33984 | -42.59029 | 35189 ft | 505 kts | 71° |
| 2026-05-09 20:18 | 51.36764 | -42.48701 | 35210 ft | 505 kts | 71° |
| 2026-05-09 20:18 | 51.39533 | -42.38370 | 35213 ft | 505 kts | 71° |
| 2026-05-09 20:19 | 51.42296 | -42.28016 | 35216 ft | 505 kts | 71° |
| 2026-05-09 20:19 | 51.45045 | -42.17664 | 35217 ft | 505 kts | 71° |
| 2026-05-09 20:20 | 51.47749 | -42.07438 | 35207 ft | 505 kts | 71° |
| 2026-05-09 20:20 | 51.50504 | -41.96975 | 35220 ft | 503 kts | 71° |
| 2026-05-09 20:21 | 51.53211 | -41.86644 | 35232 ft | 502 kts | 71° |
| 2026-05-09 20:21 | 51.55907 | -41.76305 | 35243 ft | 502 kts | 71° |
| 2026-05-09 20:22 | 51.58596 | -41.65948 | 35250 ft | 502 kts | 71° |
| 2026-05-09 20:22 | 51.61272 | -41.55592 | 35257 ft | 501 kts | 71° |
| 2026-05-09 20:23 | 51.63933 | -41.45252 | 35270 ft | 500 kts | 71° |
| 2026-05-09 20:23 | 51.66569 | -41.34962 | 35269 ft | 499 kts | 71° |
| 2026-05-09 20:24 | 51.69198 | -41.24648 | 35274 ft | 498 kts | 71° |
| 2026-05-09 20:24 | 51.71819 | -41.14317 | 35279 ft | 497 kts | 71° |
| 2026-05-09 20:25 | 51.74426 | -41.03992 | 35295 ft | 497 kts | 71° |
| 2026-05-09 20:25 | 51.77027 | -40.93646 | 35303 ft | 497 kts | 71° |